sensor_id;sensor_type;location;lat;lon;timestamp;pressure;altitude;pressure_sealevel;temperature;humidity
42621;BME280;28252;53.336;-6.298;2022-11-09T00:00:30;98674.81;;;24.86;56.40
42621;BME280;28252;53.336;-6.298;2022-11-09T00:01:02;98676.69;;;24.86;56.52
42621;BME280;28252;53.336;-6.298;2022-11-09T00:01:33;98683.81;;;24.87;56.58
42621;BME280;28252;53.336;-6.298;2022-11-09T00:02:04;98679.16;;;24.87;56.40
42621;BME280;28252;53.336;-6.298;2022-11-09T00:02:35;98677.28;;;24.88;56.43
42621;BME280;28252;53.336;-6.298;2022-11-09T00:03:06;98687.09;;;24.89;56.23
42621;BME280;28252;53.336;-6.298;2022-11-09T00:03:37;98678.94;;;24.89;56.30
42621;BME280;28252;53.336;-6.298;2022-11-09T00:04:08;98683.06;;;24.91;56.26
42621;BME280;28252;53.336;-6.298;2022-11-09T00:04:40;98684.94;;;24.91;56.36
42621;BME280;28252;53.336;-6.298;2022-11-09T00:05:11;98677.63;;;24.91;56.08
42621;BME280;28252;53.336;-6.298;2022-11-09T00:05:42;98683.63;;;24.93;56.16
42621;BME280;28252;53.336;-6.298;2022-11-09T00:06:13;98688.81;;;24.95;56.08
42621;BME280;28252;53.336;-6.298;2022-11-09T00:06:44;98684.44;;;24.94;55.82
42621;BME280;28252;53.336;-6.298;2022-11-09T00:07:15;98683.38;;;24.95;56.29
42621;BME280;28252;53.336;-6.298;2022-11-09T00:07:46;98687.72;;;24.96;56.09
42621;BME280;28252;53.336;-6.298;2022-11-09T00:08:17;98689.41;;;24.97;56.17
42621;BME280;28252;53.336;-6.298;2022-11-09T00:08:48;98689.41;;;24.97;55.96
42621;BME280;28252;53.336;-6.298;2022-11-09T00:09:18;98686.44;;;24.98;55.82
42621;BME280;28252;53.336;-6.298;2022-11-09T00:09:49;98688.91;;;25.00;56.16
42621;BME280;28252;53.336;-6.298;2022-11-09T00:10:20;98686.19;;;25.00;55.73
42621;BME280;28252;53.336;-6.298;2022-11-09T00:10:52;98694.91;;;25.02;55.86
42621;BME280;28252;53.336;-6.298;2022-11-09T00:11:23;98692.19;;;25.02;55.69
42621;BME280;28252;53.336;-6.298;2022-11-09T00:11:54;98692.19;;;25.02;55.57
42621;BME280;28252;53.336;-6.298;2022-11-09T00:12:25;98692.75;;;25.04;55.64
42621;BME280;28252;53.336;-6.298;2022-11-09T00:12:56;98692.75;;;25.04;55.54
42621;BME280;28252;53.336;-6.298;2022-11-09T00:13:28;98692.50;;;25.06;55.50
42621;BME280;28252;53.336;-6.298;2022-11-09T00:13:58;98693.31;;;25.06;55.37
42621;BME280;28252;53.336;-6.298;2022-11-09T00:14:30;98700.44;;;25.07;55.42
42621;BME280;28252;53.336;-6.298;2022-11-09T00:15:01;98694.97;;;25.07;55.63
42621;BME280;28252;53.336;-6.298;2022-11-09T00:15:32;98695.78;;;25.08;55.37
42621;BME280;28252;53.336;-6.298;2022-11-09T00:16:03;98698.53;;;25.08;54.53
42621;BME280;28252;53.336;-6.298;2022-11-09T00:16:34;98694.50;;;25.10;55.21
42621;BME280;28252;53.336;-6.298;2022-11-09T00:17:06;98701.56;;;25.11;55.41
42621;BME280;28252;53.336;-6.298;2022-11-09T00:17:37;98702.16;;;25.13;55.30
42621;BME280;28252;53.336;-6.298;2022-11-09T00:18:08;98701.91;;;25.15;55.08
42621;BME280;28252;53.336;-6.298;2022-11-09T00:18:39;98701.06;;;25.14;55.14
42621;BME280;28252;53.336;-6.298;2022-11-09T00:19:10;98695.63;;;25.14;55.18
42621;BME280;28252;53.336;-6.298;2022-11-09T00:19:42;98700.00;;;25.15;55.06
42621;BME280;28252;53.336;-6.298;2022-11-09T00:20:13;98701.66;;;25.16;55.09
42621;BME280;28252;53.336;-6.298;2022-11-09T00:20:44;98700.81;;;25.16;54.61
42621;BME280;28252;53.336;-6.298;2022-11-09T00:21:17;98701.66;;;25.16;55.35
42621;BME280;28252;53.336;-6.298;2022-11-09T00:21:48;98696.78;;;25.19;55.42
42621;BME280;28252;53.336;-6.298;2022-11-09T00:22:19;98706.84;;;25.18;55.12
42621;BME280;28252;53.336;-6.298;2022-11-09T00:22:50;98696.78;;;25.19;55.00
42621;BME280;28252;53.336;-6.298;2022-11-09T00:23:21;98701.13;;;25.20;54.98
42621;BME280;28252;53.336;-6.298;2022-11-09T00:23:52;98695.69;;;25.20;55.16
42621;BME280;28252;53.336;-6.298;2022-11-09T00:24:23;98701.97;;;25.20;54.86
42621;BME280;28252;53.336;-6.298;2022-11-09T00:24:54;98701.72;;;25.22;55.16
42621;BME280;28252;53.336;-6.298;2022-11-09T00:25:25;98698.72;;;25.23;55.20
42621;BME280;28252;53.336;-6.298;2022-11-09T00:26:03;98706.66;;;25.25;55.06
42621;BME280;28252;53.336;-6.298;2022-11-09T00:26:34;98701.84;;;25.27;54.75
42621;BME280;28252;53.336;-6.298;2022-11-09T00:27:05;98696.38;;;25.27;55.22
42621;BME280;28252;53.336;-6.298;2022-11-09T00:27:36;98707.00;;;25.28;55.05
42621;BME280;28252;53.336;-6.298;2022-11-09T00:28:07;98703.47;;;25.28;55.05
42621;BME280;28252;53.336;-6.298;2022-11-09T00:28:38;98709.47;;;25.30;55.20
42621;BME280;28252;53.336;-6.298;2022-11-09T00:29:09;98699.66;;;25.29;54.38
42621;BME280;28252;53.336;-6.298;2022-11-09T00:29:40;98707.00;;;25.28;54.87
42621;BME280;28252;53.336;-6.298;2022-11-09T00:30:11;98711.13;;;25.31;54.85
42621;BME280;28252;53.336;-6.298;2022-11-09T00:30:42;98708.41;;;25.31;54.45
42621;BME280;28252;53.336;-6.298;2022-11-09T00:31:14;98710.06;;;25.32;54.96
42621;BME280;28252;53.336;-6.298;2022-11-09T00:31:46;98702.72;;;25.32;54.68
42621;BME280;28252;53.336;-6.298;2022-11-09T00:32:17;98699.75;;;25.34;54.61
42621;BME280;28252;53.336;-6.298;2022-11-09T00:32:48;98706.81;;;25.35;54.53
42621;BME280;28252;53.336;-6.298;2022-11-09T00:33:19;98699.75;;;25.34;54.14
42621;BME280;28252;53.336;-6.298;2022-11-09T00:33:51;98706.00;;;25.34;54.36
42621;BME280;28252;53.336;-6.298;2022-11-09T00:34:22;98700.31;;;25.36;54.53
42621;BME280;28252;53.336;-6.298;2022-11-09T00:34:53;98710.13;;;25.37;54.89
42621;BME280;28252;53.336;-6.298;2022-11-09T00:35:24;98700.88;;;25.38;54.65
42621;BME280;28252;53.336;-6.298;2022-11-09T00:35:55;98709.03;;;25.38;54.41
42621;BME280;28252;53.336;-6.298;2022-11-09T00:36:27;98709.84;;;25.39;53.80
42621;BME280;28252;53.336;-6.298;2022-11-09T00:36:58;98704.16;;;25.40;53.90
42621;BME280;28252;53.336;-6.298;2022-11-09T00:37:29;98704.16;;;25.40;54.00
42621;BME280;28252;53.336;-6.298;2022-11-09T00:38:00;98707.47;;;25.42;54.16
42621;BME280;28252;53.336;-6.298;2022-11-09T00:38:31;98711.25;;;25.41;53.84
42621;BME280;28252;53.336;-6.298;2022-11-09T00:39:02;98708.28;;;25.43;54.38
42621;BME280;28252;53.336;-6.298;2022-11-09T00:39:33;98713.19;;;25.41;53.20
42621;BME280;28252;53.336;-6.298;2022-11-09T00:40:04;98711.00;;;25.43;54.27
42621;BME280;28252;53.336;-6.298;2022-11-09T00:40:35;98712.41;;;25.45;54.11
42621;BME280;28252;53.336;-6.298;2022-11-09T00:41:07;98716.22;;;25.44;53.26
42621;BME280;28252;53.336;-6.298;2022-11-09T00:41:38;98715.13;;;25.45;54.48
42621;BME280;28252;53.336;-6.298;2022-11-09T00:42:09;98715.72;;;25.47;54.10
42621;BME280;28252;53.336;-6.298;2022-11-09T00:42:40;98717.34;;;25.48;53.97
42621;BME280;28252;53.336;-6.298;2022-11-09T00:43:11;98718.19;;;25.49;53.29
42621;BME280;28252;53.336;-6.298;2022-11-09T00:43:42;98719.00;;;25.49;53.08
42621;BME280;28252;53.336;-6.298;2022-11-09T00:44:13;98713.31;;;25.51;53.63
42621;BME280;28252;53.336;-6.298;2022-11-09T00:44:44;98719.31;;;25.53;53.72
42621;BME280;28252;53.336;-6.298;2022-11-09T00:45:15;98726.44;;;25.54;53.48
42621;BME280;28252;53.336;-6.298;2022-11-09T00:45:46;98720.13;;;25.53;53.24
42621;BME280;28252;53.336;-6.298;2022-11-09T00:46:18;98718.25;;;25.54;52.86
42621;BME280;28252;53.336;-6.298;2022-11-09T00:46:49;98717.97;;;25.56;53.63
42621;BME280;28252;53.336;-6.298;2022-11-09T00:47:20;98724.03;;;25.58;53.00
42621;BME280;28252;53.336;-6.298;2022-11-09T00:47:51;98726.75;;;25.58;53.47
42621;BME280;28252;53.336;-6.298;2022-11-09T00:48:22;98725.41;;;25.60;53.09
42621;BME280;28252;53.336;-6.298;2022-11-09T00:48:53;98726.22;;;25.61;53.31
42621;BME280;28252;53.336;-6.298;2022-11-09T00:49:25;98725.97;;;25.62;53.36
42621;BME280;28252;53.336;-6.298;2022-11-09T00:49:56;98722.41;;;25.62;52.42
42621;BME280;28252;53.336;-6.298;2022-11-09T00:50:27;98732.25;;;25.63;53.58
42621;BME280;28252;53.336;-6.298;2022-11-09T00:50:58;98731.16;;;25.64;53.12
42621;BME280;28252;53.336;-6.298;2022-11-09T00:51:29;98732.81;;;25.65;52.87
42621;BME280;28252;53.336;-6.298;2022-11-09T00:52:00;98732.81;;;25.65;53.18
42621;BME280;28252;53.336;-6.298;2022-11-09T00:52:31;98734.19;;;25.67;53.50
42621;BME280;28252;53.336;-6.298;2022-11-09T00:53:02;98732.31;;;25.68;53.24
42621;BME280;28252;53.336;-6.298;2022-11-09T00:53:33;98733.94;;;25.69;52.67
42621;BME280;28252;53.336;-6.298;2022-11-09T00:54:04;98730.16;;;25.70;53.21
42621;BME280;28252;53.336;-6.298;2022-11-09T00:54:37;98730.97;;;25.70;52.63
42621;BME280;28252;53.336;-6.298;2022-11-09T00:55:08;98733.44;;;25.72;53.05
42621;BME280;28252;53.336;-6.298;2022-11-09T00:55:39;98735.91;;;25.73;53.31
42621;BME280;28252;53.336;-6.298;2022-11-09T00:56:11;98733.44;;;25.72;52.38
42621;BME280;28252;53.336;-6.298;2022-11-09T00:56:42;98730.47;;;25.73;52.58
42621;BME280;28252;53.336;-6.298;2022-11-09T00:57:13;98727.50;;;25.75;52.88
42621;BME280;28252;53.336;-6.298;2022-11-09T00:57:44;98732.94;;;25.75;52.71
42621;BME280;28252;53.336;-6.298;2022-11-09T00:58:18;98732.13;;;25.75;51.87
42621;BME280;28252;53.336;-6.298;2022-11-09T00:58:51;98735.41;;;25.77;53.04
42621;BME280;28252;53.336;-6.298;2022-11-09T00:59:22;98733.50;;;25.77;52.64
42621;BME280;28252;53.336;-6.298;2022-11-09T00:59:53;98739.53;;;25.79;52.53
42621;BME280;28252;53.336;-6.298;2022-11-09T01:00:24;98735.72;;;25.80;52.58
42621;BME280;28252;53.336;-6.298;2022-11-09T01:00:55;98733.56;;;25.82;52.91
42621;BME280;28252;53.336;-6.298;2022-11-09T01:01:27;98731.09;;;25.81;51.95
42621;BME280;28252;53.336;-6.298;2022-11-09T01:01:57;98737.38;;;25.81;52.46
42621;BME280;28252;53.336;-6.298;2022-11-09T01:02:28;98740.69;;;25.83;52.75
42621;BME280;28252;53.336;-6.298;2022-11-09T01:02:59;98740.69;;;25.83;52.00
42621;BME280;28252;53.336;-6.298;2022-11-09T01:03:30;98739.00;;;25.82;52.40
42621;BME280;28252;53.336;-6.298;2022-11-09T01:04:01;98742.31;;;25.84;52.61
42621;BME280;28252;53.336;-6.298;2022-11-09T01:04:32;98743.97;;;25.85;52.45
42621;BME280;28252;53.336;-6.298;2022-11-09T01:05:03;98749.16;;;25.87;52.47
42621;BME280;28252;53.336;-6.298;2022-11-09T01:05:36;98745.09;;;25.89;52.62
42621;BME280;28252;53.336;-6.298;2022-11-09T01:06:12;98745.94;;;25.90;52.51
42621;BME280;28252;53.336;-6.298;2022-11-09T01:06:44;98750.53;;;25.89;51.52
42621;BME280;28252;53.336;-6.298;2022-11-09T01:07:14;98741.53;;;25.89;52.11
42621;BME280;28252;53.336;-6.298;2022-11-09T01:07:45;98742.94;;;25.91;52.40
42621;BME280;28252;53.336;-6.298;2022-11-09T01:08:16;98751.69;;;25.94;51.96
42621;BME280;28252;53.336;-6.298;2022-11-09T01:08:48;98746.25;;;25.94;51.77
42621;BME280;28252;53.336;-6.298;2022-11-09T01:09:19;98743.28;;;25.95;52.43
42621;BME280;28252;53.336;-6.298;2022-11-09T01:09:50;98750.63;;;25.95;51.63
42621;BME280;28252;53.336;-6.298;2022-11-09T01:10:21;98749.56;;;25.96;51.55
42621;BME280;28252;53.336;-6.298;2022-11-09T01:10:52;98752.03;;;25.97;52.47
42621;BME280;28252;53.336;-6.298;2022-11-09T01:11:23;98753.66;;;25.98;52.37
42621;BME280;28252;53.336;-6.298;2022-11-09T01:11:54;98751.78;;;25.99;52.31
42621;BME280;28252;53.336;-6.298;2022-11-09T01:12:25;98752.34;;;26.01;51.99
42621;BME280;28252;53.336;-6.298;2022-11-09T01:12:56;98754.25;;;26.00;51.54
42621;BME280;28252;53.336;-6.298;2022-11-09T01:13:27;98755.06;;;26.01;51.46
42621;BME280;28252;53.336;-6.298;2022-11-09T01:13:58;98757.81;;;26.01;51.68
42621;BME280;28252;53.336;-6.298;2022-11-09T01:14:30;98757.56;;;26.02;50.58
42621;BME280;28252;53.336;-6.298;2022-11-09T01:15:00;98755.88;;;26.01;52.19
42621;BME280;28252;53.336;-6.298;2022-11-09T01:15:31;98755.63;;;26.03;51.78
42621;BME280;28252;53.336;-6.298;2022-11-09T01:16:04;98760.84;;;26.04;50.96
42621;BME280;28252;53.336;-6.298;2022-11-09T01:16:35;98757.31;;;26.04;51.28
42621;BME280;28252;53.336;-6.298;2022-11-09T01:17:07;98757.03;;;26.05;51.53
42621;BME280;28252;53.336;-6.298;2022-11-09T01:17:37;98756.78;;;26.07;50.87
42621;BME280;28252;53.336;-6.298;2022-11-09T01:18:09;98758.13;;;26.04;50.69
42621;BME280;28252;53.336;-6.298;2022-11-09T01:18:40;98757.31;;;26.04;51.08
42621;BME280;28252;53.336;-6.298;2022-11-09T01:19:11;98760.59;;;26.06;51.25
42621;BME280;28252;53.336;-6.298;2022-11-09T01:19:42;98764.38;;;26.05;50.39
42621;BME280;28252;53.336;-6.298;2022-11-09T01:20:14;98760.59;;;26.06;50.77
42621;BME280;28252;53.336;-6.298;2022-11-09T01:20:47;98762.25;;;26.07;51.37
42621;BME280;28252;53.336;-6.298;2022-11-09T01:21:18;98760.59;;;26.06;50.38
42621;BME280;28252;53.336;-6.298;2022-11-09T01:21:49;98755.13;;;26.06;50.23
42621;BME280;28252;53.336;-6.298;2022-11-09T01:22:20;98760.09;;;26.09;51.13
42621;BME280;28252;53.336;-6.298;2022-11-09T01:22:51;98757.91;;;26.11;51.40
42621;BME280;28252;53.336;-6.298;2022-11-09T01:23:22;98764.19;;;26.12;50.71
42621;BME280;28252;53.336;-6.298;2022-11-09T01:23:53;98772.13;;;26.13;51.26
42621;BME280;28252;53.336;-6.298;2022-11-09T01:24:24;98768.31;;;26.14;51.24
42621;BME280;28252;53.336;-6.298;2022-11-09T01:24:55;98770.50;;;26.12;49.83
42621;BME280;28252;53.336;-6.298;2022-11-09T01:25:26;98765.03;;;26.12;51.20
42621;BME280;28252;53.336;-6.298;2022-11-09T01:25:58;98763.69;;;26.15;50.47
42621;BME280;28252;53.336;-6.298;2022-11-09T01:26:29;98772.69;;;26.15;50.41
42621;BME280;28252;53.336;-6.298;2022-11-09T01:27:00;98764.50;;;26.15;49.92
42621;BME280;28252;53.336;-6.298;2022-11-09T01:27:31;98764.50;;;26.15;50.89
42621;BME280;28252;53.336;-6.298;2022-11-09T01:28:03;98767.81;;;26.17;50.47
42621;BME280;28252;53.336;-6.298;2022-11-09T01:28:34;98767.81;;;26.17;50.35
42621;BME280;28252;53.336;-6.298;2022-11-09T01:29:05;98766.72;;;26.18;50.60
42621;BME280;28252;53.336;-6.298;2022-11-09T01:29:36;98765.66;;;26.19;50.40
42621;BME280;28252;53.336;-6.298;2022-11-09T01:30:07;98760.19;;;26.19;50.02
42621;BME280;28252;53.336;-6.298;2022-11-09T01:30:39;98767.28;;;26.20;50.43
42621;BME280;28252;53.336;-6.298;2022-11-09T01:31:13;98766.75;;;26.23;50.52
42621;BME280;28252;53.336;-6.298;2022-11-09T01:31:44;98772.22;;;26.23;49.97
42621;BME280;28252;53.336;-6.298;2022-11-09T01:32:16;98772.22;;;26.23;50.09
42621;BME280;28252;53.336;-6.298;2022-11-09T01:32:47;98772.22;;;26.23;49.63
42621;BME280;28252;53.336;-6.298;2022-11-09T01:33:18;98764.59;;;26.25;50.54
42621;BME280;28252;53.336;-6.298;2022-11-09T01:33:49;98767.06;;;26.27;50.70
42621;BME280;28252;53.336;-6.298;2022-11-09T01:34:20;98771.72;;;26.26;50.20
42621;BME280;28252;53.336;-6.298;2022-11-09T01:34:51;98770.06;;;26.25;49.78
42621;BME280;28252;53.336;-6.298;2022-11-09T01:35:22;98764.59;;;26.25;49.77
42621;BME280;28252;53.336;-6.298;2022-11-09T01:35:53;98773.38;;;26.27;50.04
42621;BME280;28252;53.336;-6.298;2022-11-09T01:36:24;98778.84;;;26.27;49.76
42621;BME280;28252;53.336;-6.298;2022-11-09T01:36:55;98773.94;;;26.30;50.01
42621;BME280;28252;53.336;-6.298;2022-11-09T01:37:26;98773.13;;;26.29;50.02
42621;BME280;28252;53.336;-6.298;2022-11-09T01:37:56;98772.88;;;26.31;49.59
42621;BME280;28252;53.336;-6.298;2022-11-09T01:38:27;98766.31;;;26.32;49.38
42621;BME280;28252;53.336;-6.298;2022-11-09T01:38:59;98768.22;;;26.31;49.50
42621;BME280;28252;53.336;-6.298;2022-11-09T01:39:29;98770.13;;;26.31;49.33
42621;BME280;28252;53.336;-6.298;2022-11-09T01:40:00;98769.84;;;26.32;49.43
42621;BME280;28252;53.336;-6.298;2022-11-09T01:40:32;98766.88;;;26.34;49.35
42621;BME280;28252;53.336;-6.298;2022-11-09T01:41:04;98766.88;;;26.34;48.77
42621;BME280;28252;53.336;-6.298;2022-11-09T01:41:35;98769.59;;;26.34;49.66
42621;BME280;28252;53.336;-6.298;2022-11-09T01:42:06;98768.00;;;26.38;49.49
42621;BME280;28252;53.336;-6.298;2022-11-09T01:42:38;98763.63;;;26.37;48.88
42621;BME280;28252;53.336;-6.298;2022-11-09T01:43:16;98766.91;;;26.39;48.99
42621;BME280;28252;53.336;-6.298;2022-11-09T01:44:37;98769.38;;;26.40;48.60
42621;BME280;28252;53.336;-6.298;2022-11-09T01:45:49;98763.66;;;26.42;49.48
42621;BME280;28252;53.336;-6.298;2022-11-09T01:46:23;98764.22;;;26.44;49.08
42621;BME280;28252;53.336;-6.298;2022-11-09T01:47:00;98774.09;;;26.45;49.24
42621;BME280;28252;53.336;-6.298;2022-11-09T01:47:33;98779.53;;;26.45;48.63
42621;BME280;28252;53.336;-6.298;2022-11-09T01:48:10;98771.34;;;26.45;49.24
42621;BME280;28252;53.336;-6.298;2022-11-09T01:49:53;98766.44;;;26.47;48.88
42621;BME280;28252;53.336;-6.298;2022-11-09T01:50:30;98772.72;;;26.47;48.56
42621;BME280;28252;53.336;-6.298;2022-11-09T01:51:08;98771.41;;;26.50;48.88
42621;BME280;28252;53.336;-6.298;2022-11-09T01:51:42;98767.59;;;26.51;49.06
42621;BME280;28252;53.336;-6.298;2022-11-09T01:52:15;98767.59;;;26.51;48.86
42621;BME280;28252;53.336;-6.298;2022-11-09T01:52:47;98767.59;;;26.51;48.78
42621;BME280;28252;53.336;-6.298;2022-11-09T01:53:19;98775.50;;;26.53;49.28
42621;BME280;28252;53.336;-6.298;2022-11-09T01:53:52;98772.50;;;26.54;49.18
42621;BME280;28252;53.336;-6.298;2022-11-09T01:54:27;98776.34;;;26.53;48.45
42621;BME280;28252;53.336;-6.298;2022-11-09T01:55:03;98775.00;;;26.56;48.91
42621;BME280;28252;53.336;-6.298;2022-11-09T01:55:35;98775.84;;;26.56;48.48
42621;BME280;28252;53.336;-6.298;2022-11-09T01:56:07;98771.44;;;26.55;48.85
42621;BME280;28252;53.336;-6.298;2022-11-09T01:56:40;98774.72;;;26.57;49.04
42621;BME280;28252;53.336;-6.298;2022-11-09T01:57:21;98777.16;;;26.54;48.56
42621;BME280;28252;53.336;-6.298;2022-11-09T01:58:00;98775.84;;;26.56;49.26
42621;BME280;28252;53.336;-6.298;2022-11-09T01:58:45;98779.13;;;26.58;48.44
42621;BME280;28252;53.336;-6.298;2022-11-09T01:59:18;98777.47;;;26.57;48.43
42621;BME280;28252;53.336;-6.298;2022-11-09T01:59:58;98774.22;;;26.60;48.92
42621;BME280;28252;53.336;-6.298;2022-11-09T02:00:32;98775.88;;;26.61;48.55
42621;BME280;28252;53.336;-6.298;2022-11-09T02:01:03;98775.03;;;26.61;48.50
42621;BME280;28252;53.336;-6.298;2022-11-09T02:01:40;98772.31;;;26.61;49.01
42621;BME280;28252;53.336;-6.298;2022-11-09T02:02:12;98778.59;;;26.61;48.49
42621;BME280;28252;53.336;-6.298;2022-11-09T02:02:47;98775.88;;;26.61;48.20
42621;BME280;28252;53.336;-6.298;2022-11-09T02:03:25;98778.09;;;26.64;48.66
42621;BME280;28252;53.336;-6.298;2022-11-09T02:04:03;98775.94;;;26.67;48.68
42621;BME280;28252;53.336;-6.298;2022-11-09T02:04:49;98772.63;;;26.64;48.26
42621;BME280;28252;53.336;-6.298;2022-11-09T02:05:22;98782.16;;;26.62;48.37
42621;BME280;28252;53.336;-6.298;2022-11-09T02:05:54;98774.28;;;26.65;48.77
42621;BME280;28252;53.336;-6.298;2022-11-09T02:06:26;98778.94;;;26.65;48.40
42621;BME280;28252;53.336;-6.298;2022-11-09T02:06:58;98783.56;;;26.64;48.85
42621;BME280;28252;53.336;-6.298;2022-11-09T02:07:29;98781.41;;;26.67;48.84
42621;BME280;28252;53.336;-6.298;2022-11-09T02:08:00;98788.25;;;26.69;49.02
42621;BME280;28252;53.336;-6.298;2022-11-09T02:08:32;98786.88;;;26.67;48.31
42621;BME280;28252;53.336;-6.298;2022-11-09T02:09:11;98783.59;;;26.70;48.90
42621;BME280;28252;53.336;-6.298;2022-11-09T02:10:24;98785.81;;;26.73;49.02
42621;BME280;28252;53.336;-6.298;2022-11-09T02:10:59;98787.47;;;26.74;48.98
42621;BME280;28252;53.336;-6.298;2022-11-09T02:11:34;98788.00;;;26.71;48.44
42621;BME280;28252;53.336;-6.298;2022-11-09T02:12:06;98791.28;;;26.73;48.68
42621;BME280;28252;53.336;-6.298;2022-11-09T02:12:37;98792.94;;;26.74;48.50
42621;BME280;28252;53.336;-6.298;2022-11-09T02:13:08;98792.69;;;26.75;49.18
42621;BME280;28252;53.336;-6.298;2022-11-09T02:13:42;98793.25;;;26.77;49.10
42621;BME280;28252;53.336;-6.298;2022-11-09T02:14:14;98792.97;;;26.79;49.11
42621;BME280;28252;53.336;-6.298;2022-11-09T02:14:46;98790.75;;;26.76;48.17
42621;BME280;28252;53.336;-6.298;2022-11-09T02:15:18;98797.88;;;26.77;48.87
42621;BME280;28252;53.336;-6.298;2022-11-09T02:15:49;98791.31;;;26.78;48.67
42621;BME280;28252;53.336;-6.298;2022-11-09T02:16:20;98802.81;;;26.80;48.92
42621;BME280;28252;53.336;-6.298;2022-11-09T02:16:52;98791.88;;;26.80;48.11
42621;BME280;28252;53.336;-6.298;2022-11-09T02:17:23;98788.59;;;26.78;48.10
42621;BME280;28252;53.336;-6.298;2022-11-09T02:17:54;98795.72;;;26.79;49.01
42621;BME280;28252;53.336;-6.298;2022-11-09T02:18:26;98794.91;;;26.78;48.16
42621;BME280;28252;53.336;-6.298;2022-11-09T02:18:57;98794.06;;;26.78;48.06
42621;BME280;28252;53.336;-6.298;2022-11-09T02:19:30;98793.53;;;26.81;48.70
42621;BME280;28252;53.336;-6.298;2022-11-09T02:20:05;98796.28;;;26.81;47.71
42621;BME280;28252;53.336;-6.298;2022-11-09T02:20:44;98801.72;;;26.81;48.67
42621;BME280;28252;53.336;-6.298;2022-11-09T02:21:15;98796.81;;;26.83;48.46
42621;BME280;28252;53.336;-6.298;2022-11-09T02:21:47;98795.47;;;26.80;48.02
42621;BME280;28252;53.336;-6.298;2022-11-09T02:22:18;98799.00;;;26.81;47.27
42621;BME280;28252;53.336;-6.298;2022-11-09T02:22:49;98797.94;;;26.82;48.36
42621;BME280;28252;53.336;-6.298;2022-11-09T02:23:21;98796.81;;;26.83;47.94
42621;BME280;28252;53.336;-6.298;2022-11-09T02:23:52;98795.47;;;26.80;47.59
42621;BME280;28252;53.336;-6.298;2022-11-09T02:24:23;98802.53;;;26.81;47.82
42621;BME280;28252;53.336;-6.298;2022-11-09T02:24:55;98796.00;;;26.82;47.75
42621;BME280;28252;53.336;-6.298;2022-11-09T02:25:26;98801.47;;;26.82;47.56
42621;BME280;28252;53.336;-6.298;2022-11-09T02:26:00;98801.47;;;26.82;48.18
42621;BME280;28252;53.336;-6.298;2022-11-09T02:26:35;98812.16;;;26.84;47.74
42621;BME280;28252;53.336;-6.298;2022-11-09T02:27:08;98801.22;;;26.84;47.43
42621;BME280;28252;53.336;-6.298;2022-11-09T02:27:42;98803.44;;;26.87;48.36
42621;BME280;28252;53.336;-6.298;2022-11-09T02:28:14;98812.19;;;26.89;47.38
42621;BME280;28252;53.336;-6.298;2022-11-09T02:28:45;98806.16;;;26.87;47.18
42621;BME280;28252;53.336;-6.298;2022-11-09T02:29:21;98805.91;;;26.89;48.04
42621;BME280;28252;53.336;-6.298;2022-11-09T02:29:53;98808.91;;;26.87;46.93
42621;BME280;28252;53.336;-6.298;2022-11-09T02:30:24;98820.09;;;26.86;47.19
42621;BME280;28252;53.336;-6.298;2022-11-09T02:30:56;98808.31;;;26.85;47.05
42621;BME280;28252;53.336;-6.298;2022-11-09T02:31:29;98817.34;;;26.86;46.66
42621;BME280;28252;53.336;-6.298;2022-11-09T02:32:02;98817.91;;;26.88;47.56
42621;BME280;28252;53.336;-6.298;2022-11-09T02:32:34;98820.38;;;26.89;47.68
42621;BME280;28252;53.336;-6.298;2022-11-09T02:33:05;98817.66;;;26.89;47.22
42621;BME280;28252;53.336;-6.298;2022-11-09T02:33:42;98818.97;;;26.87;46.47
42621;BME280;28252;53.336;-6.298;2022-11-09T02:34:17;98819.81;;;26.87;47.23
42621;BME280;28252;53.336;-6.298;2022-11-09T02:34:49;98812.19;;;26.89;46.88
42621;BME280;28252;53.336;-6.298;2022-11-09T02:35:20;98819.81;;;26.87;46.85
42621;BME280;28252;53.336;-6.298;2022-11-09T02:35:50;98814.88;;;26.84;46.30
42621;BME280;28252;53.336;-6.298;2022-11-09T02:36:22;98815.69;;;26.84;46.74
42621;BME280;28252;53.336;-6.298;2022-11-09T02:36:53;98818.16;;;26.86;46.94
42621;BME280;28252;53.336;-6.298;2022-11-09T02:37:25;98822.28;;;26.89;46.79
42621;BME280;28252;53.336;-6.298;2022-11-09T02:37:56;98815.44;;;26.86;46.32
42621;BME280;28252;53.336;-6.298;2022-11-09T02:38:27;98819.81;;;26.87;46.94
42621;BME280;28252;53.336;-6.298;2022-11-09T02:38:58;98819.53;;;26.83;46.09
42621;BME280;28252;53.336;-6.298;2022-11-09T02:39:29;98821.16;;;26.84;46.42
42621;BME280;28252;53.336;-6.298;2022-11-09T02:40:02;98818.41;;;26.84;46.59
42621;BME280;28252;53.336;-6.298;2022-11-09T02:40:34;98820.34;;;26.84;46.68
42621;BME280;28252;53.336;-6.298;2022-11-09T02:41:08;98829.09;;;26.86;46.30
42621;BME280;28252;53.336;-6.298;2022-11-09T02:41:47;98823.94;;;26.90;46.91
42621;BME280;28252;53.336;-6.298;2022-11-09T02:42:19;98830.22;;;26.90;46.59
42621;BME280;28252;53.336;-6.298;2022-11-09T02:42:50;98822.56;;;26.87;46.10
42621;BME280;28252;53.336;-6.298;2022-11-09T02:43:22;98830.50;;;26.89;46.68
42621;BME280;28252;53.336;-6.298;2022-11-09T02:43:53;98831.25;;;26.84;45.98
42621;BME280;28252;53.336;-6.298;2022-11-09T02:44:24;98824.41;;;26.81;46.70
42621;BME280;28252;53.336;-6.298;2022-11-09T02:44:56;98828.28;;;26.86;46.71
42621;BME280;28252;53.336;-6.298;2022-11-09T02:45:28;98823.88;;;26.84;46.03
42621;BME280;28252;53.336;-6.298;2022-11-09T02:45:59;98821.16;;;26.84;46.56
42621;BME280;28252;53.336;-6.298;2022-11-09T02:46:31;98819.81;;;26.87;46.85
42621;BME280;28252;53.336;-6.298;2022-11-09T02:47:02;98822.81;;;26.86;46.18
42621;BME280;28252;53.336;-6.298;2022-11-09T02:47:33;98823.63;;;26.86;46.34
42621;BME280;28252;53.336;-6.298;2022-11-09T02:48:04;98824.44;;;26.87;46.35
42621;BME280;28252;53.336;-6.298;2022-11-09T02:48:35;98825.28;;;26.87;46.06
42621;BME280;28252;53.336;-6.298;2022-11-09T02:49:06;98825.53;;;26.86;46.33
42621;BME280;28252;53.336;-6.298;2022-11-09T02:49:37;98830.16;;;26.85;45.97
42621;BME280;28252;53.336;-6.298;2022-11-09T02:50:08;98829.59;;;26.83;45.92
42621;BME280;28252;53.336;-6.298;2022-11-09T02:50:39;98828.53;;;26.84;46.36